createdAt,value
2023-02-17T00:00:51.545Z,79.63
2023-02-17T00:01:53.392Z,79.04
2023-02-17T00:02:58.739Z,78.35
2023-02-17T00:04:00.911Z,78.70
2023-02-17T00:05:02.809Z,77.93
2023-02-17T00:06:08.590Z,77.79
2023-02-17T00:07:10.484Z,78.47
2023-02-17T00:08:12.360Z,78.65
2023-02-17T00:09:14.840Z,78.26
2023-02-17T00:10:16.781Z,78.38
2023-02-17T00:11:19.257Z,78.75
2023-02-17T00:12:21.136Z,78.25
2023-02-17T00:13:22.994Z,77.74
2023-02-17T00:14:24.935Z,79.47
2023-02-17T00:15:26.745Z,78.64
2023-02-17T00:16:29.581Z,78.38
2023-02-17T00:17:31.410Z,78.45
2023-02-17T00:18:33.276Z,79.06
2023-02-17T00:19:35.135Z,78.49
2023-02-17T00:20:37.051Z,78.85
2023-02-17T00:21:38.926Z,79.05
2023-02-17T00:22:40.771Z,78.16
2023-02-17T00:23:42.792Z,78.55
2023-02-17T00:24:44.766Z,78.10
2023-02-17T00:25:46.749Z,78.33
2023-02-17T00:26:49.096Z,78.99
2023-02-17T00:27:50.965Z,78.08
2023-02-17T00:28:52.837Z,78.62
2023-02-17T00:29:54.630Z,78.31
2023-02-17T00:30:56.686Z,78.45
2023-02-17T00:31:58.742Z,77.98
2023-02-17T00:33:00.650Z,79.18
2023-02-17T00:34:02.540Z,78.70
2023-02-17T00:35:04.868Z,78.78
2023-02-17T00:36:08.090Z,79.46
2023-02-17T00:37:09.930Z,78.98
2023-02-17T00:38:11.782Z,79.37
2023-02-17T00:39:14.988Z,78.91
2023-02-17T00:40:16.952Z,78.49
2023-02-17T00:41:19.365Z,78.99
2023-02-17T00:42:21.230Z,79.53
2023-02-17T00:43:23.066Z,79.13
2023-02-17T00:44:25.549Z,79.38
2023-02-17T00:45:27.441Z,78.35
2023-02-17T00:46:29.442Z,78.12
2023-02-17T00:47:31.484Z,78.80
2023-02-17T00:48:33.981Z,78.89
2023-02-17T00:49:36.029Z,78.76
2023-02-17T00:50:37.848Z,79.01
2023-02-17T00:51:41.152Z,79.33
2023-02-17T00:52:43.121Z,78.63
2023-02-17T00:53:45.074Z,79.35
2023-02-17T00:54:47.076Z,79.10
2023-02-17T00:55:50.306Z,79.29
2023-02-17T00:56:52.409Z,78.70
2023-02-17T00:57:54.339Z,78.81
2023-02-17T00:58:56.240Z,79.38
2023-02-17T00:59:58.301Z,79.17
2023-02-17T01:01:00.309Z,78.93
2023-02-17T01:02:02.257Z,78.86
2023-02-17T01:03:04.181Z,78.04
2023-02-17T01:04:06.142Z,78.80
2023-02-17T01:05:08.277Z,78.03
2023-02-17T01:06:11.451Z,77.99
2023-02-17T01:07:13.412Z,78.19
2023-02-17T01:08:15.686Z,77.36
2023-02-17T01:09:17.771Z,77.29
2023-02-17T01:10:19.601Z,76.91
2023-02-17T01:11:26.064Z,77.96
2023-02-17T01:12:27.861Z,77.67
2023-02-17T01:13:29.823Z,78.52
2023-02-17T01:14:31.708Z,78.12
2023-02-17T01:15:44.959Z,77.75
2023-02-17T01:16:48.321Z,77.65
2023-02-17T01:17:50.196Z,78.09
2023-02-17T01:18:52.506Z,77.24
2023-02-17T01:19:54.396Z,77.70
2023-02-17T01:20:56.238Z,77.37
2023-02-17T01:21:58.089Z,77.26
2023-02-17T01:23:00.085Z,77.81
2023-02-17T01:24:04.022Z,78.03
2023-02-17T01:25:06.147Z,78.14
2023-02-17T01:26:08.182Z,78.50
2023-02-17T01:27:10.115Z,78.33
2023-02-17T01:28:15.556Z,78.29
2023-02-17T01:29:17.444Z,77.48
2023-02-17T01:30:19.402Z,78.00
2023-02-17T01:31:23.010Z,77.70
2023-02-17T01:32:24.930Z,78.28
2023-02-17T01:33:26.777Z,78.13
2023-02-17T01:34:28.703Z,77.73
2023-02-17T01:35:30.605Z,77.65
2023-02-17T01:36:32.819Z,77.48
2023-02-17T01:37:34.823Z,77.87
2023-02-17T01:38:37.521Z,78.01
2023-02-17T01:39:39.702Z,78.02
2023-02-17T01:40:48.470Z,77.57
2023-02-17T01:41:50.353Z,77.53
2023-02-17T01:42:52.253Z,77.41
2023-02-17T01:44:23.431Z,77.50
2023-02-17T01:45:36.910Z,77.86
2023-02-17T01:46:39.911Z,77.76
2023-02-17T01:47:41.868Z,78.19
2023-02-17T01:48:47.090Z,78.03
2023-02-17T01:49:48.969Z,77.99
2023-02-17T01:50:53.956Z,77.99
2023-02-17T01:51:59.560Z,77.84
2023-02-17T01:53:02.869Z,77.57
2023-02-17T01:54:12.863Z,77.93
2023-02-17T01:55:17.146Z,78.57
2023-02-17T01:56:19.363Z,78.10
2023-02-17T01:57:23.777Z,78.23
2023-02-17T01:58:27.428Z,77.69
2023-02-17T01:59:30.449Z,78.04
2023-02-17T02:00:33.421Z,77.64
2023-02-17T02:01:35.914Z,77.63
2023-02-17T02:02:38.461Z,78.25
2023-02-17T02:03:40.753Z,77.81
2023-02-17T02:04:45.469Z,78.06
2023-02-17T02:05:47.443Z,77.83
2023-02-17T02:06:49.477Z,78.17
2023-02-17T02:07:52.122Z,77.29
2023-02-17T02:08:59.787Z,77.13
2023-02-17T02:10:01.760Z,77.56
2023-02-17T02:11:03.598Z,77.15
2023-02-17T02:12:17.261Z,77.42
2023-02-17T02:13:19.200Z,77.88
2023-02-17T02:14:22.684Z,77.69
2023-02-17T02:15:25.977Z,77.83
2023-02-17T02:16:27.945Z,77.82
2023-02-17T02:17:48.569Z,77.43
2023-02-17T02:19:03.840Z,77.83
2023-02-17T02:20:17.614Z,77.73
2023-02-17T02:21:32.883Z,78.05
2023-02-17T02:22:37.794Z,77.72
2023-02-17T02:23:47.900Z,77.41
2023-02-17T02:25:08.142Z,77.33
2023-02-17T02:26:12.782Z,77.37
2023-02-17T02:27:33.576Z,77.31
2023-02-17T02:28:53.863Z,77.18
2023-02-17T02:30:07.865Z,77.65
2023-02-17T02:31:09.891Z,77.74
2023-02-17T02:32:35.046Z,77.65
2023-02-17T02:33:42.984Z,77.29
2023-02-17T02:34:52.671Z,77.55
2023-02-17T02:35:54.555Z,77.67
2023-02-17T02:36:59.538Z,77.62
2023-02-17T02:38:07.145Z,78.26
2023-02-17T02:39:17.677Z,78.60
2023-02-17T02:40:22.580Z,78.31
2023-02-17T02:41:27.964Z,77.77
2023-02-17T02:42:30.599Z,77.58
2023-02-17T02:43:32.835Z,78.34
2023-02-17T02:44:34.865Z,77.85
2023-02-17T02:45:37.006Z,77.75
2023-02-17T02:46:38.883Z,77.07
2023-02-17T02:47:46.556Z,77.20
2023-02-17T02:48:48.934Z,78.14
2023-02-17T02:49:50.822Z,78.09
2023-02-17T02:51:11.041Z,78.15
2023-02-17T02:52:20.118Z,78.55
2023-02-17T02:53:47.485Z,78.46
2023-02-17T02:55:04.298Z,78.40
2023-02-17T02:56:12.500Z,78.24
2023-02-17T02:57:19.867Z,77.60
2023-02-17T02:58:29.484Z,77.53
2023-02-17T02:59:42.189Z,77.15
2023-02-17T03:00:49.020Z,77.47
2023-02-17T03:01:50.896Z,77.06
2023-02-17T03:02:52.848Z,77.51
2023-02-17T03:03:54.691Z,77.39
2023-02-17T03:04:59.733Z,77.68
2023-02-17T03:06:20.164Z,77.29
2023-02-17T03:07:24.847Z,77.26
2023-02-17T03:08:38.798Z,77.41
2023-02-17T03:09:41.035Z,77.90
2023-02-17T03:10:50.307Z,77.43
2023-02-17T03:11:53.393Z,77.21
2023-02-17T03:12:55.917Z,77.88
2023-02-17T03:14:00.240Z,77.66
2023-02-17T03:15:21.929Z,77.57
2023-02-17T03:16:23.788Z,77.41
2023-02-17T03:17:25.856Z,77.17
2023-02-17T03:18:27.762Z,76.83
2023-02-17T03:19:29.669Z,76.71
2023-02-17T03:20:35.865Z,76.68
2023-02-17T03:21:37.749Z,76.95
2023-02-17T03:22:42.268Z,76.42
2023-02-17T03:23:44.146Z,76.65
2023-02-17T03:24:45.981Z,77.27
2023-02-17T03:25:47.933Z,76.68
2023-02-17T03:26:49.911Z,76.95
2023-02-17T03:27:52.011Z,76.37
2023-02-17T03:28:53.948Z,76.58
2023-02-17T03:29:55.865Z,77.13
2023-02-17T03:30:57.740Z,76.72
2023-02-17T03:31:59.716Z,76.64
2023-02-17T03:33:01.622Z,76.95
2023-02-17T03:34:03.581Z,76.86
2023-02-17T03:35:05.581Z,76.56
2023-02-17T03:36:07.876Z,76.95
2023-02-17T03:37:10.124Z,76.47
2023-02-17T03:38:12.105Z,76.78
2023-02-17T03:39:13.994Z,76.95
2023-02-17T03:40:15.925Z,76.84
2023-02-17T03:41:17.922Z,76.89
2023-02-17T03:42:20.448Z,77.08
2023-02-17T03:43:22.380Z,76.69
2023-02-17T03:44:24.433Z,77.08
2023-02-17T03:45:26.326Z,76.87
2023-02-17T03:46:28.288Z,76.61
2023-02-17T03:47:30.261Z,76.27
2023-02-17T03:48:32.071Z,76.49
2023-02-17T03:49:33.923Z,76.53
2023-02-17T03:50:35.874Z,76.93
2023-02-17T03:51:37.734Z,76.32
2023-02-17T03:52:39.700Z,76.70
2023-02-17T03:53:42.124Z,76.68
2023-02-17T03:54:44.071Z,76.89
2023-02-17T03:55:45.923Z,76.89
2023-02-17T03:56:47.832Z,76.44
2023-02-17T03:57:49.686Z,76.31
2023-02-17T03:58:51.545Z,76.72
2023-02-17T03:59:53.394Z,76.39
2023-02-17T04:00:55.187Z,76.44
2023-02-17T04:01:57.073Z,76.53
2023-02-17T04:02:58.991Z,76.37
2023-02-17T04:04:00.930Z,76.49
2023-02-17T04:05:03.320Z,76.52
2023-02-17T04:06:05.915Z,76.37
2023-02-17T04:07:07.988Z,76.92
2023-02-17T04:08:09.887Z,76.33
2023-02-17T04:09:11.778Z,77.08
2023-02-17T04:10:13.678Z,76.93
2023-02-17T04:11:15.539Z,76.46
2023-02-17T04:12:17.510Z,76.55
2023-02-17T04:13:19.414Z,76.77
2023-02-17T04:14:21.354Z,76.27
2023-02-17T04:15:23.204Z,76.33
2023-02-17T04:16:25.093Z,76.60
2023-02-17T04:17:26.983Z,76.15
2023-02-17T04:18:28.879Z,76.40
2023-02-17T04:19:30.716Z,76.89
2023-02-17T04:20:32.754Z,77.02
2023-02-17T04:21:34.653Z,76.58
2023-02-17T04:22:36.615Z,76.36
2023-02-17T04:23:38.676Z,76.86
2023-02-17T04:24:40.593Z,76.47
2023-02-17T04:25:42.546Z,77.08
2023-02-17T04:26:44.416Z,76.87
2023-02-17T04:27:46.331Z,76.48
2023-02-17T04:28:48.125Z,76.98
2023-02-17T04:29:51.360Z,76.87
2023-02-17T04:30:53.385Z,76.67
2023-02-17T04:31:55.421Z,76.66
2023-02-17T04:32:57.351Z,76.06
2023-02-17T04:33:59.277Z,75.87
2023-02-17T04:35:01.104Z,76.34
2023-02-17T04:36:03.019Z,75.93
2023-02-17T04:37:04.986Z,76.52
2023-02-17T04:38:07.731Z,75.95
2023-02-17T04:39:09.532Z,76.39
2023-02-17T04:40:11.790Z,76.02
2023-02-17T04:41:13.641Z,75.86
2023-02-17T04:42:16.542Z,75.60
2023-02-17T04:43:21.288Z,76.20
2023-02-17T04:44:25.691Z,75.94
2023-02-17T04:45:27.576Z,76.35
2023-02-17T04:46:29.502Z,76.61
2023-02-17T04:47:31.474Z,77.22
2023-02-17T04:48:33.369Z,76.98
2023-02-17T04:49:35.244Z,76.69
2023-02-17T04:50:37.146Z,76.77
2023-02-17T04:51:38.972Z,76.38
2023-02-17T04:52:40.933Z,76.53
2023-02-17T04:53:42.825Z,77.05
2023-02-17T04:54:44.679Z,76.61
2023-02-17T04:55:49.442Z,76.79
2023-02-17T04:56:51.291Z,76.85
2023-02-17T04:57:53.222Z,76.85
2023-02-17T04:58:55.197Z,76.64
2023-02-17T04:59:57.062Z,76.83
2023-02-17T05:00:59.995Z,76.99
2023-02-17T05:02:01.865Z,76.96
2023-02-17T05:03:03.785Z,76.91
2023-02-17T05:04:05.936Z,76.54
2023-02-17T05:05:08.066Z,77.44
2023-02-17T05:06:09.955Z,76.92
2023-02-17T05:07:11.829Z,77.03
2023-02-17T05:08:13.758Z,77.68
2023-02-17T05:09:15.665Z,77.23
2023-02-17T05:10:18.258Z,76.87
2023-02-17T05:11:20.082Z,76.68
2023-02-17T05:12:21.932Z,76.53
2023-02-17T05:13:23.824Z,76.77
2023-02-17T05:14:25.740Z,76.10
2023-02-17T05:15:27.672Z,76.35
2023-02-17T05:16:29.449Z,76.91
2023-02-17T05:17:31.305Z,77.54
2023-02-17T05:18:33.188Z,77.71
2023-02-17T05:19:35.068Z,77.45
2023-02-17T05:20:37.045Z,77.17
2023-02-17T05:21:39.110Z,76.92
2023-02-17T05:22:40.940Z,76.96
2023-02-17T05:23:42.905Z,76.48
2023-02-17T05:24:44.755Z,76.51
2023-02-17T05:25:46.640Z,76.67
2023-02-17T05:26:48.467Z,76.74
2023-02-17T05:27:50.516Z,76.47
2023-02-17T05:28:52.529Z,76.73
2023-02-17T05:29:54.467Z,76.71
2023-02-17T05:30:56.434Z,76.83
2023-02-17T05:31:58.400Z,76.66
2023-02-17T05:33:01.134Z,77.18
2023-02-17T05:34:03.062Z,76.73
2023-02-17T05:35:04.948Z,76.51
2023-02-17T05:36:08.057Z,76.47
2023-02-17T05:37:10.120Z,77.01
2023-02-17T05:38:11.959Z,76.91
2023-02-17T05:39:13.882Z,76.53
2023-02-17T05:40:15.737Z,76.11
2023-02-17T05:41:17.724Z,75.97
2023-02-17T05:42:19.636Z,75.66
2023-02-17T05:43:21.534Z,75.72
2023-02-17T05:44:23.543Z,76.32
2023-02-17T05:45:25.487Z,76.34
2023-02-17T05:46:27.399Z,76.53
2023-02-17T05:47:29.313Z,76.49
2023-02-17T05:48:31.529Z,76.17
2023-02-17T05:49:33.407Z,76.62
2023-02-17T05:50:35.227Z,76.33
2023-02-17T05:51:37.441Z,76.23
2023-02-17T05:52:39.370Z,76.23
2023-02-17T05:53:41.296Z,76.55
2023-02-17T05:54:43.257Z,76.58
2023-02-17T05:55:45.544Z,75.92
2023-02-17T05:56:48.291Z,76.35
2023-02-17T05:57:50.113Z,76.18
2023-02-17T05:58:52.104Z,76.27
2023-02-17T05:59:53.993Z,75.84
2023-02-17T06:00:55.892Z,75.99
2023-02-17T06:01:57.816Z,75.61
2023-02-17T06:02:59.723Z,75.71
2023-02-17T06:04:01.700Z,75.87
2023-02-17T06:05:03.958Z,76.26
2023-02-17T06:06:06.164Z,76.21
2023-02-17T06:07:08.199Z,76.10
2023-02-17T06:08:10.134Z,75.61
2023-02-17T06:09:12.067Z,76.24
2023-02-17T06:10:14.096Z,76.74
2023-02-17T06:11:16.078Z,76.62
2023-02-17T06:12:18.058Z,76.79
2023-02-17T06:13:20.162Z,76.70
2023-02-17T06:14:22.024Z,76.29
2023-02-17T06:15:24.129Z,76.39
2023-02-17T06:16:26.065Z,76.65
2023-02-17T06:17:28.146Z,76.40
2023-02-17T06:18:30.356Z,75.82
2023-02-17T06:19:32.177Z,76.28
2023-02-17T06:20:34.221Z,76.25
2023-02-17T06:21:36.059Z,76.25
2023-02-17T06:22:38.025Z,76.28
2023-02-17T06:23:39.903Z,76.37
2023-02-17T06:24:41.845Z,76.02
2023-02-17T06:25:43.795Z,76.41
2023-02-17T06:26:45.688Z,75.94
2023-02-17T06:27:47.603Z,76.58
2023-02-17T06:28:49.512Z,76.67
2023-02-17T06:29:51.421Z,76.47
2023-02-17T06:30:53.421Z,76.08
2023-02-17T06:31:55.449Z,76.47
2023-02-17T06:32:58.487Z,76.43
2023-02-17T06:34:00.340Z,76.11
2023-02-17T06:35:02.359Z,76.05
2023-02-17T06:36:04.841Z,76.45
2023-02-17T06:37:06.954Z,76.52
2023-02-17T06:38:08.853Z,76.06
2023-02-17T06:39:10.783Z,76.55
2023-02-17T06:40:12.763Z,76.61
2023-02-17T06:41:14.678Z,76.34
2023-02-17T06:42:17.099Z,76.20
2023-02-17T06:43:19.086Z,76.70
2023-02-17T06:44:21.062Z,76.70
2023-02-17T06:45:22.977Z,76.09
2023-02-17T06:46:24.993Z,76.49
2023-02-17T06:47:27.103Z,75.75
2023-02-17T06:48:28.994Z,76.16
2023-02-17T06:49:30.901Z,76.25
2023-02-17T06:50:32.926Z,75.60
2023-02-17T06:51:34.814Z,76.00
2023-02-17T06:52:36.668Z,76.10
2023-02-17T06:53:38.518Z,76.02
2023-02-17T06:54:40.354Z,75.57
2023-02-17T06:55:44.228Z,75.91
2023-02-17T06:56:46.161Z,75.91
2023-02-17T06:57:48.968Z,76.04
2023-02-17T06:58:51.787Z,75.99
2023-02-17T06:59:53.694Z,75.64
2023-02-17T07:00:55.697Z,75.66
2023-02-17T07:01:57.738Z,75.54
2023-02-17T07:03:00.033Z,75.62
2023-02-17T07:04:02.287Z,76.09
2023-02-17T07:05:04.298Z,75.63
2023-02-17T07:06:06.571Z,75.57
2023-02-17T07:07:09.246Z,76.11
2023-02-17T07:08:11.157Z,76.04
2023-02-17T07:09:14.279Z,76.13
2023-02-17T07:10:16.149Z,76.39
2023-02-17T07:11:18.372Z,76.00
2023-02-17T07:12:20.272Z,76.29
2023-02-17T07:13:22.216Z,76.47
2023-02-17T07:14:25.051Z,76.25
2023-02-17T07:15:27.080Z,75.74
2023-02-17T07:16:29.076Z,75.79
2023-02-17T07:17:30.966Z,75.71
2023-02-17T07:18:32.986Z,75.90
2023-02-17T07:19:34.857Z,76.04
2023-02-17T07:20:39.095Z,75.85
2023-02-17T07:21:41.262Z,75.60
2023-02-17T07:22:43.354Z,75.44
2023-02-17T07:23:45.252Z,75.32
2023-02-17T07:24:47.154Z,75.39
2023-02-17T07:25:48.998Z,74.84
2023-02-17T07:26:50.919Z,75.24
2023-02-17T07:27:53.150Z,75.38
2023-02-17T07:28:55.118Z,75.65
2023-02-17T07:29:57.003Z,75.24
2023-02-17T07:31:04.869Z,75.03
2023-02-17T07:32:06.961Z,75.59
2023-02-17T07:33:09.201Z,75.25
2023-02-17T07:34:11.108Z,75.13
2023-02-17T07:35:13.089Z,75.11
2023-02-17T07:36:16.393Z,74.74
2023-02-17T07:37:20.344Z,74.16
2023-02-17T07:38:22.248Z,74.02
2023-02-17T07:39:24.111Z,74.31
2023-02-17T07:40:26.377Z,73.94
2023-02-17T07:41:33.011Z,73.79
2023-02-17T07:42:35.058Z,73.74
2023-02-17T07:43:37.038Z,73.36
2023-02-17T07:44:39.093Z,73.47
2023-02-17T07:45:42.080Z,73.22
2023-02-17T07:46:43.952Z,73.68
2023-02-17T07:47:45.878Z,73.81
2023-02-17T07:48:47.887Z,73.98
2023-02-17T07:49:49.717Z,73.86
2023-02-17T07:50:51.557Z,73.99
2023-02-17T07:51:53.393Z,73.69
2023-02-17T07:52:55.379Z,73.48
2023-02-17T07:53:57.234Z,73.28
2023-02-17T07:54:59.135Z,73.22
2023-02-17T07:56:02.713Z,73.73
2023-02-17T07:57:04.809Z,73.04
2023-02-17T07:58:06.729Z,72.98
2023-02-17T07:59:09.288Z,72.97
2023-02-17T08:00:11.461Z,72.78
2023-02-17T08:01:15.414Z,72.65
2023-02-17T08:02:17.451Z,72.61
2023-02-17T08:03:20.097Z,72.26
2023-02-17T08:04:22.043Z,72.50
2023-02-17T08:05:23.998Z,73.08
2023-02-17T08:06:26.446Z,73.02
2023-02-17T08:07:28.332Z,73.27
2023-02-17T08:08:48.860Z,72.86
2023-02-17T08:10:09.027Z,73.14
2023-02-17T08:11:31.175Z,72.89
2023-02-17T08:12:51.353Z,72.43
2023-02-17T08:13:53.343Z,72.07
2023-02-17T08:14:57.872Z,72.07
2023-02-17T08:15:59.959Z,72.13
2023-02-17T08:17:01.933Z,72.27
2023-02-17T08:18:05.324Z,72.57
2023-02-17T08:19:07.704Z,72.19
2023-02-17T08:20:10.189Z,72.32
2023-02-17T08:21:12.103Z,72.57
2023-02-17T08:22:14.080Z,72.40
2023-02-17T08:23:16.014Z,71.81
2023-02-17T08:24:19.912Z,71.97
2023-02-17T08:25:21.877Z,72.00
2023-02-17T08:26:24.170Z,71.92
2023-02-17T08:27:26.076Z,71.37
2023-02-17T08:28:28.150Z,71.40
2023-02-17T08:29:30.097Z,70.81
2023-02-17T08:30:32.118Z,71.35
2023-02-17T08:31:35.249Z,71.72
2023-02-17T08:32:37.427Z,71.38
2023-02-17T08:33:39.351Z,71.21
2023-02-17T08:34:41.310Z,70.78
2023-02-17T08:35:43.800Z,70.92
2023-02-17T08:36:45.879Z,71.34
2023-02-17T08:37:47.776Z,71.51
2023-02-17T08:38:51.524Z,71.23
2023-02-17T08:39:53.882Z,70.81
2023-02-17T08:40:55.740Z,70.58
2023-02-17T08:41:57.642Z,70.74
2023-02-17T08:43:01.181Z,70.57
2023-02-17T08:44:07.580Z,70.39
2023-02-17T08:45:09.772Z,70.83
2023-02-17T08:46:12.045Z,70.63
2023-02-17T08:47:13.956Z,70.34
2023-02-17T08:48:15.726Z,70.14
2023-02-17T08:49:18.906Z,70.69
2023-02-17T08:50:21.005Z,70.95
2023-02-17T08:51:26.099Z,70.82
2023-02-17T08:52:28.010Z,70.47
2023-02-17T08:53:29.934Z,69.71
2023-02-17T08:54:32.079Z,69.94
2023-02-17T08:55:48.339Z,70.16
2023-02-17T08:56:51.110Z,70.07
2023-02-17T08:57:54.376Z,69.89
2023-02-17T08:58:56.934Z,69.58
2023-02-17T08:59:59.062Z,69.69
2023-02-17T09:01:00.994Z,69.60
2023-02-17T09:02:02.958Z,69.66
2023-02-17T09:03:04.837Z,69.32
2023-02-17T09:04:07.711Z,68.83
2023-02-17T09:05:10.077Z,68.72
2023-02-17T09:06:12.078Z,69.47
2023-02-17T09:07:14.771Z,69.14
2023-02-17T09:08:16.682Z,68.47
2023-02-17T09:09:20.923Z,68.19
2023-02-17T09:10:22.819Z,68.50
2023-02-17T09:11:24.812Z,68.61
2023-02-17T09:12:26.684Z,68.37
2023-02-17T09:13:28.712Z,68.53
2023-02-17T09:14:31.017Z,68.16
2023-02-17T09:15:32.859Z,68.12
2023-02-17T09:16:34.826Z,68.69
2023-02-17T09:17:39.571Z,68.40
2023-02-17T09:18:41.503Z,67.03
2023-02-17T09:19:43.541Z,67.99
2023-02-17T09:20:45.429Z,67.61
2023-02-17T09:21:48.623Z,68.13
2023-02-17T09:22:51.492Z,68.32
2023-02-17T09:23:56.670Z,68.27
2023-02-17T09:24:58.892Z,66.96
2023-02-17T09:26:05.783Z,66.89
2023-02-17T09:27:08.030Z,66.80
2023-02-17T09:28:10.085Z,67.68
2023-02-17T09:29:12.199Z,67.44
2023-02-17T09:30:14.411Z,67.79
2023-02-17T09:31:23.973Z,67.75
2023-02-17T09:32:26.115Z,67.23
2023-02-17T09:33:28.042Z,67.43
2023-02-17T09:34:29.915Z,66.88
2023-02-17T09:35:33.186Z,66.25
2023-02-17T09:36:38.338Z,66.68
2023-02-17T09:37:40.338Z,66.93
2023-02-17T09:38:42.464Z,68.07
2023-02-17T09:39:45.050Z,67.39
2023-02-17T09:40:49.252Z,67.61
2023-02-17T09:41:53.647Z,67.27
2023-02-17T09:42:55.649Z,67.48
2023-02-17T09:43:58.193Z,65.85
2023-02-17T09:45:05.686Z,66.21
2023-02-17T09:46:12.495Z,66.11
2023-02-17T09:47:17.299Z,65.49
2023-02-17T09:48:22.376Z,66.38
2023-02-17T09:49:28.725Z,66.96
2023-02-17T09:50:39.654Z,66.92
2023-02-17T09:51:48.577Z,65.82
2023-02-17T09:53:03.587Z,66.10
2023-02-17T09:54:12.478Z,66.80
2023-02-17T09:55:19.122Z,66.65
2023-02-17T09:56:25.814Z,65.71
2023-02-17T09:57:29.631Z,65.85
2023-02-17T09:58:41.297Z,67.07
2023-02-17T09:59:48.612Z,65.83
2023-02-17T10:00:56.368Z,66.27
2023-02-17T10:01:59.029Z,65.26
2023-02-17T10:03:07.118Z,66.12
2023-02-17T10:04:14.400Z,65.00
2023-02-17T10:05:19.227Z,64.66
2023-02-17T10:06:39.555Z,65.33
2023-02-17T10:07:53.788Z,65.92
2023-02-17T10:08:58.785Z,65.70
2023-02-17T10:10:10.408Z,66.08
2023-02-17T10:11:19.247Z,65.91
2023-02-17T10:12:24.492Z,65.50
2023-02-17T10:13:29.885Z,65.63
2023-02-17T10:14:52.593Z,66.25
2023-02-17T10:15:56.748Z,67.42
2023-02-17T10:17:21.028Z,67.85
2023-02-17T10:18:36.048Z,68.24
2023-02-17T10:19:53.120Z,67.87
2023-02-17T10:21:01.163Z,68.03
2023-02-17T10:22:13.210Z,66.92
2023-02-17T10:23:26.224Z,66.56
2023-02-17T10:24:28.178Z,66.79
2023-02-17T10:25:38.967Z,67.27
2023-02-17T10:26:45.293Z,67.91
2023-02-17T10:27:52.082Z,67.51
2023-02-17T10:28:58.276Z,66.51
2023-02-17T10:30:21.949Z,66.81
2023-02-17T10:31:27.532Z,66.95
2023-02-17T10:32:30.807Z,68.03
2023-02-17T10:33:46.143Z,68.80
2023-02-17T10:35:00.336Z,70.41
2023-02-17T10:36:02.224Z,71.38
2023-02-17T10:37:10.188Z,70.58
2023-02-17T10:38:12.096Z,69.61
2023-02-17T10:39:27.752Z,70.32
2023-02-17T10:40:29.883Z,69.37
2023-02-17T10:41:34.980Z,70.23
2023-02-17T10:42:38.303Z,69.51
2023-02-17T10:43:41.361Z,70.30
2023-02-17T10:44:43.464Z,70.34
2023-02-17T10:45:49.839Z,69.93
2023-02-17T10:46:52.880Z,70.04
2023-02-17T10:47:58.328Z,69.80
2023-02-17T10:49:00.793Z,69.72
2023-02-17T10:50:03.732Z,69.98
2023-02-17T10:51:06.033Z,69.17
2023-02-17T10:52:13.880Z,69.76
2023-02-17T10:53:17.941Z,70.73
2023-02-17T10:54:39.853Z,70.68
2023-02-17T10:55:47.777Z,70.43
2023-02-17T10:56:53.256Z,72.49
2023-02-17T10:57:59.146Z,70.81
2023-02-17T10:59:22.651Z,69.28
2023-02-17T11:00:24.709Z,68.56
2023-02-17T11:01:28.077Z,69.35
2023-02-17T11:02:29.950Z,69.63
2023-02-17T11:03:32.716Z,69.66
2023-02-17T11:04:40.978Z,69.75
2023-02-17T11:05:42.794Z,70.65
2023-02-17T11:06:49.347Z,71.31
2023-02-17T11:07:55.794Z,71.04
2023-02-17T11:09:02.389Z,73.16
2023-02-17T11:10:19.896Z,73.74
2023-02-17T11:11:23.269Z,73.89
2023-02-17T11:12:28.077Z,72.94
2023-02-17T11:13:32.676Z,73.00
2023-02-17T11:14:37.079Z,74.03
2023-02-17T11:15:46.915Z,72.97
2023-02-17T11:17:08.921Z,71.90
2023-02-17T11:18:12.646Z,72.06
2023-02-17T11:19:34.964Z,71.04
2023-02-17T11:20:37.683Z,72.40
2023-02-17T11:21:43.305Z,72.52
2023-02-17T11:22:47.110Z,73.27
2023-02-17T11:24:09.093Z,74.21
2023-02-17T11:25:19.870Z,75.86
2023-02-17T11:26:27.296Z,76.72
2023-02-17T11:27:29.340Z,77.04
2023-02-17T11:28:31.202Z,77.64
2023-02-17T11:29:34.506Z,77.58
2023-02-17T11:30:36.896Z,77.61
2023-02-17T11:31:38.916Z,76.76
2023-02-17T11:32:40.877Z,75.95
2023-02-17T11:33:42.801Z,75.75
2023-02-17T11:34:45.089Z,75.44
2023-02-17T11:35:50.084Z,76.40
2023-02-17T11:37:24.896Z,76.33
2023-02-17T11:38:28.610Z,75.00
2023-02-17T11:39:30.915Z,74.62
2023-02-17T11:40:33.497Z,73.81
2023-02-17T11:41:41.304Z,71.84
2023-02-17T11:42:43.244Z,72.81
2023-02-17T11:43:55.855Z,73.17
2023-02-17T11:44:59.311Z,72.80
2023-02-17T11:46:01.253Z,72.41
2023-02-17T11:47:32.511Z,72.21
2023-02-17T11:48:34.333Z,71.14
2023-02-17T11:49:42.329Z,72.02
2023-02-17T11:51:00.447Z,71.87
2023-02-17T11:52:11.074Z,70.71
2023-02-17T11:53:23.724Z,71.49
2023-02-17T11:54:36.441Z,71.34
2023-02-17T11:55:50.375Z,70.77
2023-02-17T11:57:18.287Z,72.71
2023-02-17T11:58:23.213Z,71.74
2023-02-17T11:59:36.353Z,72.90
2023-02-17T12:00:56.480Z,72.49
2023-02-17T12:01:58.343Z,72.29
2023-02-17T12:03:03.225Z,72.77
2023-02-17T12:04:37.663Z,73.42
2023-02-17T12:05:48.689Z,72.89
2023-02-17T12:07:08.440Z,73.76
2023-02-17T12:08:13.099Z,74.26
2023-02-17T12:09:17.570Z,73.59
2023-02-17T12:10:19.413Z,72.67
2023-02-17T12:11:32.476Z,72.28
2023-02-17T12:12:52.656Z,72.34
2023-02-17T12:14:00.765Z,72.19
2023-02-17T12:15:08.857Z,72.37
2023-02-17T12:16:13.296Z,73.11
2023-02-17T12:17:15.154Z,72.24
2023-02-17T12:18:17.066Z,71.71
2023-02-17T12:19:24.679Z,70.86
2023-02-17T12:20:29.515Z,71.97
2023-02-17T12:21:33.980Z,71.44
2023-02-17T12:22:47.798Z,72.13
2023-02-17T12:23:58.648Z,71.70
2023-02-17T12:25:10.149Z,70.57
2023-02-17T12:26:17.017Z,71.05
2023-02-17T12:27:27.109Z,71.11
2023-02-17T12:28:45.809Z,70.71
2023-02-17T12:31:05.446Z,71.95
2023-02-17T12:32:07.582Z,71.55
2023-02-17T12:33:28.154Z,72.20
2023-02-17T12:34:32.124Z,69.73
2023-02-17T12:35:45.695Z,69.81
2023-02-17T12:36:49.169Z,69.25
2023-02-17T12:37:59.627Z,69.22
2023-02-17T12:39:04.355Z,69.97
2023-02-17T12:40:18.096Z,70.70
2023-02-17T12:41:28.570Z,70.32
2023-02-17T12:42:38.782Z,69.66
2023-02-17T12:43:49.715Z,69.90
2023-02-17T12:44:54.580Z,69.52
2023-02-17T12:45:59.067Z,69.44
2023-02-17T12:47:05.411Z,69.73
2023-02-17T12:48:13.118Z,70.55
2023-02-17T12:49:14.942Z,69.70
2023-02-17T12:50:28.717Z,70.19
2023-02-17T12:51:32.599Z,69.85
2023-02-17T12:52:39.243Z,69.21
2023-02-17T12:53:43.761Z,70.33
2023-02-17T12:54:49.826Z,69.50
2023-02-17T12:55:55.390Z,69.54
2023-02-17T12:57:00.319Z,70.35
2023-02-17T12:58:05.952Z,70.25
2023-02-17T12:59:30.875Z,70.96
2023-02-17T13:00:34.117Z,70.52
2023-02-17T13:01:47.131Z,69.97
2023-02-17T13:02:49.932Z,70.45
2023-02-17T13:03:52.245Z,69.79
2023-02-17T13:04:56.018Z,70.45
2023-02-17T13:06:04.584Z,70.03
2023-02-17T13:07:23.517Z,70.76
2023-02-17T13:08:38.001Z,70.27
2023-02-17T13:09:44.536Z,70.35
2023-02-17T13:10:46.446Z,70.40
2023-02-17T13:11:48.714Z,70.65
2023-02-17T13:12:59.055Z,71.04
2023-02-17T13:14:19.463Z,70.52
2023-02-17T13:15:42.644Z,71.08
2023-02-17T13:16:46.341Z,70.53
2023-02-17T13:18:06.180Z,71.45
2023-02-17T13:19:08.744Z,70.83
2023-02-17T13:20:10.628Z,71.27
2023-02-17T13:21:30.785Z,72.11
2023-02-17T13:22:32.974Z,72.22
2023-02-17T13:23:40.264Z,71.90
2023-02-17T13:24:52.475Z,71.90
2023-02-17T13:26:13.255Z,71.20
2023-02-17T13:27:33.205Z,71.78
2023-02-17T13:28:36.991Z,71.05
2023-02-17T13:29:38.948Z,71.76
2023-02-17T13:30:42.027Z,71.99
2023-02-17T13:31:50.081Z,71.10
2023-02-17T13:33:05.615Z,71.36
2023-02-17T13:34:09.479Z,71.47
2023-02-17T13:35:11.383Z,70.34
2023-02-17T13:36:36.346Z,70.59
2023-02-17T13:37:40.711Z,69.32
2023-02-17T13:38:52.342Z,69.24
2023-02-17T13:39:54.243Z,69.77
2023-02-17T13:40:59.637Z,69.83
2023-02-17T13:42:02.266Z,69.86
2023-02-17T13:43:11.489Z,69.14
2023-02-17T13:44:33.470Z,69.44
2023-02-17T13:45:40.120Z,69.78
2023-02-17T13:46:42.168Z,69.41
2023-02-17T13:47:44.295Z,69.02
2023-02-17T13:48:46.313Z,69.50
2023-02-17T13:49:55.150Z,69.21
2023-02-17T13:50:58.187Z,69.46
2023-02-17T13:52:32.304Z,70.05
2023-02-17T13:53:37.731Z,70.32
2023-02-17T13:54:42.176Z,70.91
2023-02-17T13:55:45.184Z,70.78